sensor_id;sensor_type;location;lat;lon;timestamp;temperature;humidity
40696;DHT22;40425;51.102;17.208;2022-08-30T00:03:45;14.10;99.90
40696;DHT22;40425;51.102;17.208;2022-08-30T00:08:47;14.10;99.90
40696;DHT22;40425;51.102;17.208;2022-08-30T00:13:50;14.00;99.90
40696;DHT22;40425;51.102;17.208;2022-08-30T00:18:52;13.90;99.90
40696;DHT22;40425;51.102;17.208;2022-08-30T00:23:53;13.80;99.90
40696;DHT22;40425;51.102;17.208;2022-08-30T00:28:54;13.80;99.90
40696;DHT22;40425;51.102;17.208;2022-08-30T00:33:55;13.80;99.90
40696;DHT22;40425;51.102;17.208;2022-08-30T00:38:55;13.80;99.90
40696;DHT22;40425;51.102;17.208;2022-08-30T00:43:56;13.70;99.90
40696;DHT22;40425;51.102;17.208;2022-08-30T00:49:02;13.70;99.90
40696;DHT22;40425;51.102;17.208;2022-08-30T00:54:04;13.70;99.90
40696;DHT22;40425;51.102;17.208;2022-08-30T00:59:07;13.70;99.90
40696;DHT22;40425;51.102;17.208;2022-08-30T01:04:09;13.70;99.90
40696;DHT22;40425;51.102;17.208;2022-08-30T01:09:11;13.70;99.90
40696;DHT22;40425;51.102;17.208;2022-08-30T01:14:14;13.70;99.90
40696;DHT22;40425;51.102;17.208;2022-08-30T01:20:10;13.60;99.90
40696;DHT22;40425;51.102;17.208;2022-08-30T01:24:54;13.60;99.90
40696;DHT22;40425;51.102;17.208;2022-08-30T01:29:56;13.60;99.90
40696;DHT22;40425;51.102;17.208;2022-08-30T01:34:57;13.50;99.90
40696;DHT22;40425;51.102;17.208;2022-08-30T01:39:59;13.40;99.90
40696;DHT22;40425;51.102;17.208;2022-08-30T01:45:00;13.30;99.90
40696;DHT22;40425;51.102;17.208;2022-08-30T01:50:01;13.30;99.90
40696;DHT22;40425;51.102;17.208;2022-08-30T01:55:04;13.30;99.90
40696;DHT22;40425;51.102;17.208;2022-08-30T02:00:08;13.30;99.90
40696;DHT22;40425;51.102;17.208;2022-08-30T02:05:09;13.20;99.90
40696;DHT22;40425;51.102;17.208;2022-08-30T02:10:10;13.10;99.90
40696;DHT22;40425;51.102;17.208;2022-08-30T02:15:11;13.10;99.90
40696;DHT22;40425;51.102;17.208;2022-08-30T02:20:12;13.10;99.90
40696;DHT22;40425;51.102;17.208;2022-08-30T02:25:13;13.10;99.90
40696;DHT22;40425;51.102;17.208;2022-08-30T02:30:14;13.10;99.90
40696;DHT22;40425;51.102;17.208;2022-08-30T02:35:15;13.20;99.90
40696;DHT22;40425;51.102;17.208;2022-08-30T02:40:17;13.30;99.90
40696;DHT22;40425;51.102;17.208;2022-08-30T02:45:17;13.50;99.90
40696;DHT22;40425;51.102;17.208;2022-08-30T02:50:18;13.50;99.90
40696;DHT22;40425;51.102;17.208;2022-08-30T02:55:19;13.60;99.90
40696;DHT22;40425;51.102;17.208;2022-08-30T03:00:20;13.70;99.90
40696;DHT22;40425;51.102;17.208;2022-08-30T03:05:21;13.70;99.90
40696;DHT22;40425;51.102;17.208;2022-08-30T03:10:22;13.90;99.90
40696;DHT22;40425;51.102;17.208;2022-08-30T03:15:23;14.00;99.90
40696;DHT22;40425;51.102;17.208;2022-08-30T03:20:25;14.10;99.90
40696;DHT22;40425;51.102;17.208;2022-08-30T03:25:26;14.20;99.90
40696;DHT22;40425;51.102;17.208;2022-08-30T03:30:28;14.20;99.90
40696;DHT22;40425;51.102;17.208;2022-08-30T03:35:29;14.20;99.90
40696;DHT22;40425;51.102;17.208;2022-08-30T03:40:31;14.20;99.90
40696;DHT22;40425;51.102;17.208;2022-08-30T03:45:32;14.30;99.90
40696;DHT22;40425;51.102;17.208;2022-08-30T03:50:33;14.20;99.90
40696;DHT22;40425;51.102;17.208;2022-08-30T03:55:35;14.00;99.90
40696;DHT22;40425;51.102;17.208;2022-08-30T04:00:36;13.90;99.90
40696;DHT22;40425;51.102;17.208;2022-08-30T04:05:37;13.90;99.90
40696;DHT22;40425;51.102;17.208;2022-08-30T04:10:38;14.00;99.90
40696;DHT22;40425;51.102;17.208;2022-08-30T04:15:39;14.00;99.90
40696;DHT22;40425;51.102;17.208;2022-08-30T04:20:40;14.00;99.90
40696;DHT22;40425;51.102;17.208;2022-08-30T04:25:41;14.10;99.90
40696;DHT22;40425;51.102;17.208;2022-08-30T04:30:43;14.40;99.90
40696;DHT22;40425;51.102;17.208;2022-08-30T04:35:46;14.70;99.90
40696;DHT22;40425;51.102;17.208;2022-08-30T04:40:47;14.90;99.90
40696;DHT22;40425;51.102;17.208;2022-08-30T04:45:48;14.90;99.90
40696;DHT22;40425;51.102;17.208;2022-08-30T04:50:51;14.90;99.90
40696;DHT22;40425;51.102;17.208;2022-08-30T04:55:52;15.10;99.90
40696;DHT22;40425;51.102;17.208;2022-08-30T05:00:53;15.20;99.90
40696;DHT22;40425;51.102;17.208;2022-08-30T05:05:54;15.30;99.90
40696;DHT22;40425;51.102;17.208;2022-08-30T05:10:55;15.50;99.90
40696;DHT22;40425;51.102;17.208;2022-08-30T05:15:55;15.70;99.90
40696;DHT22;40425;51.102;17.208;2022-08-30T05:21:10;15.80;99.90
40696;DHT22;40425;51.102;17.208;2022-08-30T05:26:17;15.90;99.90
40696;DHT22;40425;51.102;17.208;2022-08-30T05:31:30;16.10;99.90
40696;DHT22;40425;51.102;17.208;2022-08-30T05:36:34;16.40;99.90
40696;DHT22;40425;51.102;17.208;2022-08-30T05:41:36;16.50;99.90
40696;DHT22;40425;51.102;17.208;2022-08-30T05:46:37;16.60;99.90
40696;DHT22;40425;51.102;17.208;2022-08-30T05:51:39;16.50;99.90
40696;DHT22;40425;51.102;17.208;2022-08-30T05:56:41;16.50;99.90
40696;DHT22;40425;51.102;17.208;2022-08-30T06:01:45;16.50;99.90
40696;DHT22;40425;51.102;17.208;2022-08-30T06:06:46;16.60;99.90
40696;DHT22;40425;51.102;17.208;2022-08-30T06:11:47;16.80;99.90
40696;DHT22;40425;51.102;17.208;2022-08-30T06:16:48;17.00;99.90
40696;DHT22;40425;51.102;17.208;2022-08-30T06:21:50;17.00;99.90
40696;DHT22;40425;51.102;17.208;2022-08-30T06:26:51;17.10;99.90
40696;DHT22;40425;51.102;17.208;2022-08-30T06:31:52;17.20;99.90
40696;DHT22;40425;51.102;17.208;2022-08-30T06:36:52;17.30;99.90
40696;DHT22;40425;51.102;17.208;2022-08-30T06:41:53;17.40;99.90
40696;DHT22;40425;51.102;17.208;2022-08-30T06:46:55;17.60;99.90
40696;DHT22;40425;51.102;17.208;2022-08-30T06:51:55;17.90;99.90
40696;DHT22;40425;51.102;17.208;2022-08-30T06:56:56;18.10;99.90
40696;DHT22;40425;51.102;17.208;2022-08-30T07:01:57;18.40;99.90
40696;DHT22;40425;51.102;17.208;2022-08-30T07:06:58;18.50;99.90
40696;DHT22;40425;51.102;17.208;2022-08-30T07:12:01;18.40;99.90
40696;DHT22;40425;51.102;17.208;2022-08-30T07:17:04;18.30;99.90
40696;DHT22;40425;51.102;17.208;2022-08-30T07:22:27;18.50;99.90
40696;DHT22;40425;51.102;17.208;2022-08-30T07:27:29;18.70;99.90
40696;DHT22;40425;51.102;17.208;2022-08-30T07:32:30;18.60;99.90
40696;DHT22;40425;51.102;17.208;2022-08-30T07:37:31;18.70;99.90
40696;DHT22;40425;51.102;17.208;2022-08-30T07:42:32;19.00;99.90
40696;DHT22;40425;51.102;17.208;2022-08-30T07:47:33;19.20;99.90
40696;DHT22;40425;51.102;17.208;2022-08-30T07:52:34;19.30;99.90
40696;DHT22;40425;51.102;17.208;2022-08-30T07:57:35;19.90;99.90
40696;DHT22;40425;51.102;17.208;2022-08-30T08:02:36;20.10;99.90
40696;DHT22;40425;51.102;17.208;2022-08-30T08:07:37;20.50;99.90
40696;DHT22;40425;51.102;17.208;2022-08-30T08:12:39;20.50;99.90
40696;DHT22;40425;51.102;17.208;2022-08-30T08:17:40;20.30;99.90
40696;DHT22;40425;51.102;17.208;2022-08-30T08:22:41;20.40;99.90
40696;DHT22;40425;51.102;17.208;2022-08-30T08:27:42;20.20;99.90
40696;DHT22;40425;51.102;17.208;2022-08-30T08:32:43;20.60;99.90
40696;DHT22;40425;51.102;17.208;2022-08-30T08:37:44;21.00;99.90
40696;DHT22;40425;51.102;17.208;2022-08-30T08:48:25;20.70;99.90
40696;DHT22;40425;51.102;17.208;2022-08-30T08:53:32;21.10;99.90
40696;DHT22;40425;51.102;17.208;2022-08-30T08:58:46;21.30;99.90
40696;DHT22;40425;51.102;17.208;2022-08-30T09:03:49;20.90;99.90
40696;DHT22;40425;51.102;17.208;2022-08-30T09:08:50;20.20;99.90
40696;DHT22;40425;51.102;17.208;2022-08-30T09:13:51;20.60;99.90
40696;DHT22;40425;51.102;17.208;2022-08-30T09:18:53;20.70;99.90
40696;DHT22;40425;51.102;17.208;2022-08-30T09:24:03;21.40;99.90
40696;DHT22;40425;51.102;17.208;2022-08-30T09:29:15;21.30;99.90
40696;DHT22;40425;51.102;17.208;2022-08-30T09:34:19;21.10;99.90
40696;DHT22;40425;51.102;17.208;2022-08-30T10:04:04;21.60;99.90
40696;DHT22;40425;51.102;17.208;2022-08-30T10:09:10;21.20;99.90
40696;DHT22;40425;51.102;17.208;2022-08-30T10:14:37;21.50;99.90
40696;DHT22;40425;51.102;17.208;2022-08-30T10:19:51;22.10;99.90
40696;DHT22;40425;51.102;17.208;2022-08-30T10:25:09;21.60;99.90
40696;DHT22;40425;51.102;17.208;2022-08-30T10:30:13;21.30;99.90
40696;DHT22;40425;51.102;17.208;2022-08-30T10:35:26;21.70;99.90
40696;DHT22;40425;51.102;17.208;2022-08-30T10:40:37;22.80;99.90
40696;DHT22;40425;51.102;17.208;2022-08-30T10:46:09;22.60;99.90
40696;DHT22;40425;51.102;17.208;2022-08-30T10:51:23;21.80;99.90
40696;DHT22;40425;51.102;17.208;2022-08-30T10:56:26;21.90;99.90
40696;DHT22;40425;51.102;17.208;2022-08-30T11:01:35;21.70;99.90
40696;DHT22;40425;51.102;17.208;2022-08-30T11:06:42;21.70;99.90
40696;DHT22;40425;51.102;17.208;2022-08-30T11:12:09;21.70;99.90
40696;DHT22;40425;51.102;17.208;2022-08-30T11:18:23;22.20;99.90
40696;DHT22;40425;51.102;17.208;2022-08-30T11:33:47;22.60;99.90
40696;DHT22;40425;51.102;17.208;2022-08-30T11:43:51;22.40;99.90
40696;DHT22;40425;51.102;17.208;2022-08-30T11:59:45;22.60;99.90
40696;DHT22;40425;51.102;17.208;2022-08-30T12:04:48;22.60;99.90
40696;DHT22;40425;51.102;17.208;2022-08-30T12:14:52;23.00;99.90
40696;DHT22;40425;51.102;17.208;2022-08-30T12:19:56;22.90;99.90
40696;DHT22;40425;51.102;17.208;2022-08-30T12:24:57;23.00;99.90
40696;DHT22;40425;51.102;17.208;2022-08-30T12:30:01;23.30;99.90
40696;DHT22;40425;51.102;17.208;2022-08-30T12:35:04;23.20;99.90
40696;DHT22;40425;51.102;17.208;2022-08-30T12:40:19;23.00;99.90
40696;DHT22;40425;51.102;17.208;2022-08-30T12:45:25;22.90;99.90
40696;DHT22;40425;51.102;17.208;2022-08-30T12:50:51;23.10;99.90
40696;DHT22;40425;51.102;17.208;2022-08-30T12:56:00;23.30;99.90
40696;DHT22;40425;51.102;17.208;2022-08-30T13:06:56;23.30;99.90
40696;DHT22;40425;51.102;17.208;2022-08-30T13:11:57;23.30;99.90
40696;DHT22;40425;51.102;17.208;2022-08-30T13:17:11;23.60;99.90
40696;DHT22;40425;51.102;17.208;2022-08-30T13:22:29;23.50;99.90
40696;DHT22;40425;51.102;17.208;2022-08-30T13:27:30;24.10;99.90
40696;DHT22;40425;51.102;17.208;2022-08-30T13:32:31;24.40;99.90
40696;DHT22;40425;51.102;17.208;2022-08-30T13:37:38;23.90;99.90
40696;DHT22;40425;51.102;17.208;2022-08-30T13:42:41;23.10;99.90
40696;DHT22;40425;51.102;17.208;2022-08-30T13:47:43;23.10;99.90
40696;DHT22;40425;51.102;17.208;2022-08-30T13:52:46;23.10;99.90
40696;DHT22;40425;51.102;17.208;2022-08-30T13:57:47;23.30;99.90
40696;DHT22;40425;51.102;17.208;2022-08-30T14:02:48;23.40;99.90
40696;DHT22;40425;51.102;17.208;2022-08-30T14:07:50;23.40;99.90
40696;DHT22;40425;51.102;17.208;2022-08-30T14:12:51;23.20;99.90
40696;DHT22;40425;51.102;17.208;2022-08-30T14:17:52;22.80;99.90
40696;DHT22;40425;51.102;17.208;2022-08-30T14:22:53;22.60;99.90
40696;DHT22;40425;51.102;17.208;2022-08-30T14:27:55;22.80;99.90
40696;DHT22;40425;51.102;17.208;2022-08-30T14:32:56;23.10;99.90
40696;DHT22;40425;51.102;17.208;2022-08-30T14:37:57;23.00;99.90
40696;DHT22;40425;51.102;17.208;2022-08-30T14:42:58;23.30;99.90
40696;DHT22;40425;51.102;17.208;2022-08-30T14:47:58;23.30;99.90
40696;DHT22;40425;51.102;17.208;2022-08-30T14:53:02;22.90;99.90
40696;DHT22;40425;51.102;17.208;2022-08-30T14:58:04;22.60;99.90
40696;DHT22;40425;51.102;17.208;2022-08-30T15:03:06;22.40;99.90
40696;DHT22;40425;51.102;17.208;2022-08-30T15:08:08;22.30;99.90
40696;DHT22;40425;51.102;17.208;2022-08-30T15:13:09;22.20;99.90
40696;DHT22;40425;51.102;17.208;2022-08-30T15:18:10;22.10;99.90
40696;DHT22;40425;51.102;17.208;2022-08-30T15:23:10;22.10;99.90
40696;DHT22;40425;51.102;17.208;2022-08-30T15:28:11;22.20;99.90
40696;DHT22;40425;51.102;17.208;2022-08-30T15:33:12;22.50;99.90
40696;DHT22;40425;51.102;17.208;2022-08-30T15:38:13;22.60;99.90
40696;DHT22;40425;51.102;17.208;2022-08-30T15:43:14;22.30;99.90
40696;DHT22;40425;51.102;17.208;2022-08-30T15:48:16;22.00;99.90
40696;DHT22;40425;51.102;17.208;2022-08-30T15:53:16;21.70;99.90
40696;DHT22;40425;51.102;17.208;2022-08-30T15:58:17;21.70;99.90
40696;DHT22;40425;51.102;17.208;2022-08-30T16:03:18;21.60;99.90
40696;DHT22;40425;51.102;17.208;2022-08-30T16:08:19;21.60;99.90
40696;DHT22;40425;51.102;17.208;2022-08-30T16:13:20;21.40;99.90
40696;DHT22;40425;51.102;17.208;2022-08-30T16:18:21;21.30;99.90
40696;DHT22;40425;51.102;17.208;2022-08-30T16:23:22;21.20;99.90
40696;DHT22;40425;51.102;17.208;2022-08-30T16:28:23;21.30;99.90
40696;DHT22;40425;51.102;17.208;2022-08-30T16:33:24;21.30;99.90
40696;DHT22;40425;51.102;17.208;2022-08-30T16:38:26;21.10;99.90
40696;DHT22;40425;51.102;17.208;2022-08-30T16:43:27;21.00;99.90
40696;DHT22;40425;51.102;17.208;2022-08-30T16:48:29;20.90;99.90
40696;DHT22;40425;51.102;17.208;2022-08-30T16:53:30;20.90;99.90
40696;DHT22;40425;51.102;17.208;2022-08-30T16:58:30;20.80;99.90
40696;DHT22;40425;51.102;17.208;2022-08-30T17:03:32;20.80;99.90
40696;DHT22;40425;51.102;17.208;2022-08-30T17:08:33;20.70;99.90
40696;DHT22;40425;51.102;17.208;2022-08-30T17:13:34;20.40;99.90
40696;DHT22;40425;51.102;17.208;2022-08-30T17:18:35;20.30;99.90
40696;DHT22;40425;51.102;17.208;2022-08-30T17:23:36;20.00;99.90
40696;DHT22;40425;51.102;17.208;2022-08-30T17:28:39;19.80;99.90
40696;DHT22;40425;51.102;17.208;2022-08-30T17:33:41;19.50;99.90
40696;DHT22;40425;51.102;17.208;2022-08-30T17:38:42;19.20;99.90
40696;DHT22;40425;51.102;17.208;2022-08-30T17:43:43;19.20;99.90
40696;DHT22;40425;51.102;17.208;2022-08-30T17:48:45;19.00;99.90
40696;DHT22;40425;51.102;17.208;2022-08-30T17:53:46;19.00;99.90
40696;DHT22;40425;51.102;17.208;2022-08-30T17:58:47;18.90;99.90
40696;DHT22;40425;51.102;17.208;2022-08-30T18:03:49;18.90;99.90
40696;DHT22;40425;51.102;17.208;2022-08-30T18:08:51;18.80;99.90
40696;DHT22;40425;51.102;17.208;2022-08-30T18:13:52;18.80;99.90
40696;DHT22;40425;51.102;17.208;2022-08-30T18:18:53;18.70;99.90
40696;DHT22;40425;51.102;17.208;2022-08-30T18:23:55;18.70;99.90
40696;DHT22;40425;51.102;17.208;2022-08-30T18:28:56;18.60;99.90
40696;DHT22;40425;51.102;17.208;2022-08-30T18:33:57;18.50;99.90
40696;DHT22;40425;51.102;17.208;2022-08-30T18:38:59;18.50;99.90
40696;DHT22;40425;51.102;17.208;2022-08-30T18:44:00;18.40;99.90
40696;DHT22;40425;51.102;17.208;2022-08-30T18:49:01;18.10;99.90
40696;DHT22;40425;51.102;17.208;2022-08-30T18:54:02;17.90;99.90
40696;DHT22;40425;51.102;17.208;2022-08-30T18:59:04;17.80;99.90
40696;DHT22;40425;51.102;17.208;2022-08-30T19:04:05;17.90;99.90
40696;DHT22;40425;51.102;17.208;2022-08-30T19:09:06;17.90;99.90
40696;DHT22;40425;51.102;17.208;2022-08-30T19:14:07;17.80;99.90
40696;DHT22;40425;51.102;17.208;2022-08-30T19:19:08;17.80;99.90
40696;DHT22;40425;51.102;17.208;2022-08-30T19:24:11;17.30;99.90
40696;DHT22;40425;51.102;17.208;2022-08-30T19:29:13;17.00;99.90
40696;DHT22;40425;51.102;17.208;2022-08-30T19:34:14;16.90;99.90
40696;DHT22;40425;51.102;17.208;2022-08-30T19:39:14;16.90;99.90
40696;DHT22;40425;51.102;17.208;2022-08-30T19:44:15;17.00;99.90
40696;DHT22;40425;51.102;17.208;2022-08-30T19:49:17;16.90;99.90
40696;DHT22;40425;51.102;17.208;2022-08-30T19:54:18;17.00;99.90
40696;DHT22;40425;51.102;17.208;2022-08-30T19:59:19;16.90;99.90
40696;DHT22;40425;51.102;17.208;2022-08-30T20:04:20;16.70;99.90
40696;DHT22;40425;51.102;17.208;2022-08-30T20:09:21;16.70;99.90
40696;DHT22;40425;51.102;17.208;2022-08-30T20:14:22;16.70;99.90
40696;DHT22;40425;51.102;17.208;2022-08-30T20:19:23;16.50;99.90
40696;DHT22;40425;51.102;17.208;2022-08-30T20:24:25;16.30;99.90
40696;DHT22;40425;51.102;17.208;2022-08-30T20:29:26;16.10;99.90
40696;DHT22;40425;51.102;17.208;2022-08-30T20:34:27;16.00;99.90
40696;DHT22;40425;51.102;17.208;2022-08-30T20:39:28;16.00;99.90
40696;DHT22;40425;51.102;17.208;2022-08-30T20:44:29;16.10;99.90
40696;DHT22;40425;51.102;17.208;2022-08-30T20:49:30;16.10;99.90
40696;DHT22;40425;51.102;17.208;2022-08-30T20:54:31;16.10;99.90
40696;DHT22;40425;51.102;17.208;2022-08-30T20:59:33;16.00;99.90
40696;DHT22;40425;51.102;17.208;2022-08-30T21:04:37;15.90;99.90
40696;DHT22;40425;51.102;17.208;2022-08-30T21:09:38;15.80;99.90
40696;DHT22;40425;51.102;17.208;2022-08-30T21:14:38;15.70;99.90
40696;DHT22;40425;51.102;17.208;2022-08-30T21:19:40;15.70;99.90
40696;DHT22;40425;51.102;17.208;2022-08-30T21:24:41;15.70;99.90
40696;DHT22;40425;51.102;17.208;2022-08-30T21:29:42;15.70;99.90
40696;DHT22;40425;51.102;17.208;2022-08-30T21:34:42;15.70;99.90
40696;DHT22;40425;51.102;17.208;2022-08-30T21:40:02;15.80;99.90
40696;DHT22;40425;51.102;17.208;2022-08-30T21:45:04;15.90;99.90
40696;DHT22;40425;51.102;17.208;2022-08-30T21:50:07;15.90;99.90
40696;DHT22;40425;51.102;17.208;2022-08-30T21:55:08;16.00;99.90
40696;DHT22;40425;51.102;17.208;2022-08-30T22:00:10;16.10;99.90
40696;DHT22;40425;51.102;17.208;2022-08-30T22:05:15;16.10;99.90
40696;DHT22;40425;51.102;17.208;2022-08-30T22:10:16;16.10;99.90
40696;DHT22;40425;51.102;17.208;2022-08-30T22:15:17;16.10;99.90
40696;DHT22;40425;51.102;17.208;2022-08-30T22:20:18;15.80;99.90
40696;DHT22;40425;51.102;17.208;2022-08-30T22:25:19;15.80;99.90
40696;DHT22;40425;51.102;17.208;2022-08-30T22:30:20;15.70;99.90
40696;DHT22;40425;51.102;17.208;2022-08-30T22:35:21;15.60;99.90
40696;DHT22;40425;51.102;17.208;2022-08-30T22:40:22;15.40;99.90
40696;DHT22;40425;51.102;17.208;2022-08-30T22:45:23;15.20;99.90
40696;DHT22;40425;51.102;17.208;2022-08-30T22:50:25;15.20;99.90
40696;DHT22;40425;51.102;17.208;2022-08-30T22:55:26;15.40;99.90
40696;DHT22;40425;51.102;17.208;2022-08-30T23:00:27;15.40;99.90
40696;DHT22;40425;51.102;17.208;2022-08-30T23:05:28;15.50;99.90
40696;DHT22;40425;51.102;17.208;2022-08-30T23:10:30;15.50;99.90
40696;DHT22;40425;51.102;17.208;2022-08-30T23:15:31;15.60;99.90
40696;DHT22;40425;51.102;17.208;2022-08-30T23:20:33;15.60;99.90
40696;DHT22;40425;51.102;17.208;2022-08-30T23:25:34;15.60;99.90
40696;DHT22;40425;51.102;17.208;2022-08-30T23:30:54;15.70;99.90
40696;DHT22;40425;51.102;17.208;2022-08-30T23:36:13;15.80;99.90
40696;DHT22;40425;51.102;17.208;2022-08-30T23:41:32;15.80;99.90
40696;DHT22;40425;51.102;17.208;2022-08-30T23:46:52;15.80;99.90
40696;DHT22;40425;51.102;17.208;2022-08-30T23:52:11;16.00;99.90
40696;DHT22;40425;51.102;17.208;2022-08-30T23:57:30;16.10;99.90
